createdAt,value
2022-11-01T00:01:51.509Z,3.00
2022-11-01T00:04:19.681Z,3.95
2022-11-01T00:06:46.805Z,4.72
2022-11-01T00:09:14.209Z,4.82
2022-11-01T00:11:41.769Z,3.92
2022-11-01T00:14:12.864Z,2.13
2022-11-01T00:16:40.423Z,4.68
2022-11-01T00:19:07.545Z,3.20
2022-11-01T00:21:34.739Z,4.25
2022-11-01T00:24:02.401Z,4.43
2022-11-01T00:26:29.636Z,3.67
2022-11-01T00:28:57.061Z,2.40
2022-11-01T00:31:25.014Z,5.22
2022-11-01T00:33:52.292Z,3.58
2022-11-01T00:36:19.517Z,3.50
2022-11-01T00:38:51.247Z,4.38
2022-11-01T00:41:20.766Z,4.07
2022-11-01T00:43:48.370Z,3.67
2022-11-01T00:46:16.409Z,3.03
2022-11-01T00:48:44.023Z,5.60
2022-11-01T00:51:11.291Z,4.70
2022-11-01T00:53:38.506Z,5.82
2022-11-01T00:56:07.306Z,4.85
2022-11-01T00:58:35.557Z,4.93
2022-11-01T01:01:02.903Z,4.65
2022-11-01T01:03:30.290Z,5.03
2022-11-01T01:05:57.493Z,4.50
2022-11-01T01:08:25.246Z,4.18
2022-11-01T01:10:53.132Z,5.60
2022-11-01T01:13:20.940Z,5.13
2022-11-01T01:18:15.509Z,4.43
2022-11-01T01:20:42.818Z,5.28
2022-11-01T01:23:09.999Z,5.50
2022-11-01T01:25:42.556Z,5.15
2022-11-01T01:28:10.342Z,4.15
2022-11-01T01:30:41.413Z,4.97
2022-11-01T01:33:09.660Z,3.70
2022-11-01T01:35:38.830Z,5.80
2022-11-01T01:38:06.940Z,6.43
2022-11-01T01:40:35.114Z,5.93
2022-11-01T01:43:02.489Z,6.10
2022-11-01T01:45:29.731Z,3.55
2022-11-01T01:48:11.327Z,8.55
2022-11-01T01:50:50.954Z,5.57
2022-11-01T01:53:18.107Z,5.15
2022-11-01T01:56:00.588Z,6.47
2022-11-01T01:58:31.589Z,5.38
2022-11-01T02:00:59.669Z,6.00
2022-11-01T02:03:31.160Z,5.10
2022-11-01T02:06:05.209Z,4.72
2022-11-01T02:08:33.204Z,5.65
2022-11-01T02:11:02.660Z,5.10
2022-11-01T02:13:31.500Z,3.78
2022-11-01T02:16:23.137Z,6.47
2022-11-01T02:19:27.038Z,3.70
2022-11-01T02:22:14.259Z,4.88
2022-11-01T02:25:18.684Z,5.93
2022-11-01T02:28:20.307Z,3.80
2022-11-01T02:31:25.284Z,3.22
2022-11-01T02:34:06.706Z,3.10
2022-11-01T02:36:37.358Z,7.25
2022-11-01T02:39:17.550Z,4.60
2022-11-01T02:42:23.608Z,5.30
2022-11-01T02:45:01.401Z,7.03
2022-11-01T02:50:01.512Z,4.78
2022-11-01T02:52:32.885Z,4.28
2022-11-01T02:55:03.983Z,5.28
2022-11-01T02:57:38.981Z,5.22
2022-11-01T03:00:24.657Z,2.95
2022-11-01T03:03:01.463Z,3.15
2022-11-01T03:05:31.803Z,3.03
2022-11-01T03:08:12.369Z,4.40
2022-11-01T03:10:56.770Z,5.70
2022-11-01T03:13:35.259Z,3.30
2022-11-01T03:16:30.328Z,4.15
2022-11-01T03:19:18.465Z,4.72
2022-11-01T03:21:59.359Z,3.25
2022-11-01T03:24:36.573Z,3.10
2022-11-01T03:27:24.492Z,4.25
2022-11-01T03:29:58.799Z,2.65
2022-11-01T03:32:30.208Z,4.22
2022-11-01T03:34:59.606Z,4.80
2022-11-01T03:37:28.940Z,2.88
2022-11-01T03:40:02.893Z,1.65
2022-11-01T03:42:32.269Z,2.75
2022-11-01T03:45:45.794Z,4.80
2022-11-01T03:48:13.645Z,3.10
2022-11-01T03:50:47.365Z,2.80
2022-11-01T03:53:15.453Z,3.10
2022-11-01T03:55:43.373Z,2.55
2022-11-01T03:58:11.481Z,2.47
2022-11-01T04:00:42.574Z,2.35
2022-11-01T04:03:11.326Z,2.67
2022-11-01T04:05:42.093Z,3.42
2022-11-01T04:08:11.626Z,2.17
2022-11-01T04:10:39.293Z,1.95
2022-11-01T04:13:06.770Z,2.20
2022-11-01T04:15:55.897Z,4.40
2022-11-01T04:18:43.472Z,3.95
2022-11-01T04:23:40.056Z,1.85
2022-11-01T04:26:08.110Z,3.45
2022-11-01T04:28:35.459Z,2.53
2022-11-01T04:31:03.490Z,2.67
2022-11-01T04:33:30.874Z,1.73
2022-11-01T04:35:58.303Z,2.13
2022-11-01T04:38:26.029Z,3.10
2022-11-01T04:40:53.369Z,1.42
2022-11-01T04:43:22.858Z,1.52
2022-11-01T04:45:57.280Z,3.60
2022-11-01T04:48:26.215Z,2.85
2022-11-01T04:50:57.006Z,1.20
2022-11-01T04:53:24.555Z,2.67
2022-11-01T04:55:52.015Z,1.73
2022-11-01T04:58:19.498Z,1.58
2022-11-01T05:00:47.303Z,2.83
2022-11-01T05:03:14.869Z,2.42
2022-11-01T05:05:42.386Z,1.95
2022-11-01T05:08:12.170Z,2.10
2022-11-01T05:10:44.571Z,2.42
2022-11-01T05:13:13.309Z,2.38
2022-11-01T05:15:59.234Z,3.33
2022-11-01T05:18:29.420Z,0.90
2022-11-01T05:20:57.620Z,2.97
2022-11-01T05:23:25.368Z,2.72
2022-11-01T05:25:52.891Z,3.30
2022-11-01T05:28:38.933Z,2.90
2022-11-01T05:31:06.475Z,3.13
2022-11-01T05:33:44.323Z,2.03
2022-11-01T05:38:42.261Z,1.50
2022-11-01T05:44:38.304Z,2.17
2022-11-01T05:47:06.152Z,4.20
2022-11-01T05:49:33.641Z,2.90
2022-11-01T05:52:01.218Z,3.05
2022-11-01T05:54:28.559Z,3.97
2022-11-01T05:56:59.232Z,1.40
2022-11-01T06:00:18.997Z,3.15
2022-11-01T06:02:47.449Z,2.90
2022-11-01T06:05:31.223Z,1.92
2022-11-01T06:08:01.580Z,2.05
2022-11-01T06:10:29.253Z,3.30
2022-11-01T06:15:24.568Z,2.38
2022-11-01T06:17:57.083Z,2.40
2022-11-01T06:20:29.783Z,3.72
2022-11-01T06:22:58.738Z,1.33
2022-11-01T06:25:27.724Z,1.77
2022-11-01T06:27:55.230Z,2.55
2022-11-01T06:30:22.659Z,1.40
2022-11-01T06:32:50.082Z,2.25
2022-11-01T06:35:17.699Z,1.90
2022-11-01T06:37:45.094Z,2.58
2022-11-01T06:40:13.203Z,3.28
2022-11-01T06:42:45.450Z,4.22
2022-11-01T06:45:14.654Z,2.00
2022-11-01T06:47:46.603Z,1.65
2022-11-01T06:50:14.157Z,2.75
2022-11-01T06:52:41.512Z,2.13
2022-11-01T06:55:09.060Z,3.15
2022-11-01T06:57:36.560Z,4.95
2022-11-01T07:00:04.710Z,1.40
2022-11-01T07:02:32.467Z,1.95
2022-11-01T07:05:00.424Z,2.15
2022-11-01T07:07:31.803Z,1.80
2022-11-01T07:09:59.416Z,2.35
2022-11-01T07:12:26.679Z,2.72
2022-11-01T07:14:54.054Z,2.53
2022-11-01T07:17:29.346Z,3.55
2022-11-01T07:19:57.159Z,3.50
2022-11-01T07:22:24.969Z,2.25
2022-11-01T07:24:52.494Z,1.98
2022-11-01T07:27:20.753Z,3.13
2022-11-01T07:30:16.145Z,1.42
2022-11-01T07:32:43.688Z,3.13
2022-11-01T07:35:18.523Z,2.83
2022-11-01T07:37:46.023Z,2.00
2022-11-01T07:40:13.708Z,2.10
2022-11-01T07:42:45.145Z,3.55
2022-11-01T07:45:13.785Z,1.98
2022-11-01T07:47:41.165Z,2.22
2022-11-01T07:50:08.954Z,1.55
2022-11-01T07:52:36.465Z,1.75
2022-11-01T07:55:04.090Z,1.70
2022-11-01T07:57:31.665Z,2.70
2022-11-01T07:59:59.096Z,2.83
2022-11-01T08:02:26.632Z,3.72
2022-11-01T08:04:54.673Z,1.98
2022-11-01T08:09:49.275Z,2.25
2022-11-01T08:12:16.741Z,1.33
2022-11-01T08:14:44.138Z,1.27
2022-11-01T08:17:11.497Z,1.83
2022-11-01T08:19:38.948Z,1.13
2022-11-01T08:22:06.515Z,1.17
2022-11-01T08:24:34.197Z,1.95
2022-11-01T08:27:03.616Z,2.40
2022-11-01T08:29:31.171Z,2.08
2022-11-01T08:31:58.606Z,1.95
2022-11-01T08:34:26.046Z,1.48
2022-11-01T08:36:53.449Z,2.85
2022-11-01T08:39:21.027Z,1.75
2022-11-01T08:41:49.550Z,1.38
2022-11-01T08:44:20.430Z,1.17
2022-11-01T08:46:47.784Z,1.90
2022-11-01T08:49:15.245Z,3.10
2022-11-01T08:51:42.950Z,3.58
2022-11-01T08:54:10.485Z,1.48
2022-11-01T08:56:38.058Z,1.15
2022-11-01T08:59:05.512Z,1.63
2022-11-01T09:01:34.185Z,1.73
2022-11-01T09:04:05.851Z,2.58
2022-11-01T09:06:36.390Z,1.33
2022-11-01T09:09:05.152Z,1.42
2022-11-01T09:11:32.784Z,1.83
2022-11-01T09:14:01.404Z,2.13
2022-11-01T09:16:29.461Z,0.70
2022-11-01T09:21:31.820Z,2.38
2022-11-01T09:23:59.943Z,2.58
2022-11-01T09:26:30.358Z,1.45
2022-11-01T09:28:58.806Z,1.58
2022-11-01T09:31:26.240Z,2.30
2022-11-01T09:34:08.163Z,1.80
2022-11-01T09:36:44.717Z,1.08
2022-11-01T09:39:49.591Z,1.65
2022-11-01T09:42:40.061Z,2.05
2022-11-01T09:45:17.541Z,2.90
2022-11-01T09:47:51.161Z,1.83
2022-11-01T09:50:31.469Z,1.30
2022-11-01T09:53:00.540Z,1.42
2022-11-01T09:55:51.321Z,3.33
2022-11-01T09:58:59.030Z,1.35
2022-11-01T10:01:29.565Z,0.95
2022-11-01T10:04:06.256Z,1.88
2022-11-01T10:06:42.117Z,1.00
2022-11-01T10:09:27.798Z,1.20
2022-11-01T10:12:23.703Z,2.10
2022-11-01T10:15:12.898Z,2.15
2022-11-01T10:17:53.974Z,2.00
2022-11-01T10:20:33.961Z,1.83
2022-11-01T10:23:04.967Z,1.58
2022-11-01T10:25:36.463Z,1.65
2022-11-01T10:28:09.794Z,1.58
2022-11-01T10:30:42.827Z,1.33
2022-11-01T10:33:22.583Z,1.20
2022-11-01T10:35:56.203Z,1.55
2022-11-01T10:41:53.974Z,2.40
2022-11-01T10:44:39.585Z,1.50
2022-11-01T10:47:12.818Z,1.60
2022-11-01T10:50:06.652Z,0.82
2022-11-01T10:52:53.155Z,1.48
2022-11-01T10:55:57.102Z,1.73
2022-11-01T10:58:44.240Z,1.05
2022-11-01T11:01:19.141Z,1.88
2022-11-01T11:03:49.226Z,1.35
2022-11-01T11:06:16.879Z,0.57
2022-11-01T11:08:49.704Z,1.48
2022-11-01T11:11:22.405Z,0.70
2022-11-01T11:13:54.185Z,1.20
2022-11-01T11:16:46.602Z,0.60
2022-11-01T11:19:31.294Z,0.95
2022-11-01T11:22:00.052Z,1.13
2022-11-01T11:24:43.861Z,0.85
2022-11-01T11:27:42.209Z,1.17
2022-11-01T11:30:13.680Z,2.58
2022-11-01T11:32:49.090Z,0.50
2022-11-01T11:35:48.014Z,1.52
2022-11-01T11:38:15.409Z,2.72
2022-11-01T11:40:45.813Z,1.40
2022-11-01T11:43:23.759Z,0.90
2022-11-01T11:46:23.723Z,2.42
2022-11-01T11:48:53.203Z,1.10
2022-11-01T11:52:10.798Z,1.58
2022-11-01T11:54:48.327Z,0.93
2022-11-01T11:57:42.607Z,1.73
2022-11-01T12:00:23.443Z,0.77
2022-11-01T12:02:50.988Z,0.90
2022-11-01T12:05:26.794Z,0.43
2022-11-01T12:07:55.702Z,1.77
2022-11-01T12:10:32.129Z,0.63
2022-11-01T12:13:04.961Z,1.38
2022-11-01T12:15:41.233Z,0.80
2022-11-01T12:18:28.882Z,0.60
2022-11-01T12:21:15.671Z,1.40
2022-11-01T12:23:43.436Z,0.20
2022-11-01T12:26:16.672Z,0.73
2022-11-01T12:29:08.662Z,0.82
2022-11-01T12:31:48.908Z,1.65
2022-11-01T12:34:31.327Z,0.43
2022-11-01T12:37:02.010Z,1.00
2022-11-01T12:39:35.678Z,1.15
2022-11-01T12:42:05.264Z,0.22
2022-11-01T12:44:41.526Z,0.50
2022-11-01T12:47:18.463Z,0.60
2022-11-01T12:50:16.816Z,0.47
2022-11-01T12:52:49.525Z,0.80
2022-11-01T12:55:40.530Z,0.55
2022-11-01T12:58:20.333Z,1.35
2022-11-01T13:01:38.715Z,0.40
2022-11-01T13:04:40.874Z,0.25
2022-11-01T13:07:39.036Z,0.85
2022-11-01T13:10:36.330Z,0.38
2022-11-01T13:13:07.000Z,0.75
2022-11-01T13:15:55.885Z,0.75
2022-11-01T13:18:52.821Z,0.52
2022-11-01T13:21:23.175Z,0.47
2022-11-01T13:24:32.915Z,2.47
2022-11-01T13:27:06.679Z,0.55
2022-11-01T13:29:51.918Z,0.77
2022-11-01T13:32:20.316Z,0.73
2022-11-01T13:35:05.580Z,1.00
2022-11-01T13:37:58.234Z,0.60
2022-11-01T13:40:34.657Z,0.28
2022-11-01T13:43:10.746Z,0.43
2022-11-01T13:45:53.166Z,0.85
2022-11-01T13:48:38.956Z,0.98
2022-11-01T13:51:39.487Z,0.10
2022-11-01T13:54:19.137Z,0.85
2022-11-01T13:56:53.874Z,1.15
2022-11-01T13:59:37.902Z,0.45
2022-11-01T14:02:31.453Z,0.88
2022-11-01T14:05:00.552Z,1.08
2022-11-01T14:07:43.192Z,0.47
2022-11-01T14:10:33.526Z,1.27
2022-11-01T14:13:10.922Z,0.75
2022-11-01T14:16:01.630Z,0.85
2022-11-01T14:18:52.388Z,0.63
2022-11-01T14:21:31.611Z,0.85
2022-11-01T14:24:01.882Z,0.73
2022-11-01T14:26:46.953Z,0.90
2022-11-01T14:29:15.224Z,0.57
2022-11-01T14:31:46.158Z,0.68
2022-11-01T14:34:25.444Z,0.85
2022-11-01T14:36:57.510Z,0.20
2022-11-01T14:40:10.887Z,0.47
2022-11-01T14:42:43.528Z,0.80
2022-11-01T14:45:35.979Z,1.50
2022-11-01T14:48:12.157Z,1.15
2022-11-01T14:50:52.480Z,0.55
2022-11-01T14:53:28.671Z,0.93
2022-11-01T14:56:06.746Z,0.40
2022-11-01T14:58:34.270Z,0.52
2022-11-01T15:01:08.401Z,1.60
2022-11-01T15:03:36.281Z,0.73
2022-11-01T15:08:40.580Z,0.50
2022-11-01T15:11:08.389Z,0.88
2022-11-01T15:16:24.190Z,0.63
2022-11-01T15:18:56.608Z,0.63
2022-11-01T15:21:30.573Z,0.93
2022-11-01T15:23:59.729Z,0.30
2022-11-01T15:26:31.228Z,0.28
2022-11-01T15:29:03.081Z,0.75
2022-11-01T15:31:31.681Z,1.05
2022-11-01T15:34:04.931Z,0.63
2022-11-01T15:36:38.013Z,1.30
2022-11-01T15:39:39.857Z,0.80
2022-11-01T15:44:46.208Z,1.70
2022-11-01T15:47:43.293Z,1.17
2022-11-01T15:50:19.679Z,1.48
2022-11-01T15:52:47.255Z,1.75
2022-11-01T15:55:28.427Z,0.90
2022-11-01T15:58:04.802Z,1.75
2022-11-01T16:01:00.270Z,2.33
2022-11-01T16:03:35.157Z,1.13
2022-11-01T16:06:23.607Z,0.60
2022-11-01T16:08:59.222Z,1.88
2022-11-01T16:11:38.291Z,1.08
2022-11-01T16:14:33.550Z,1.02
2022-11-01T16:17:33.881Z,0.82
2022-11-01T16:20:21.918Z,1.15
2022-11-01T16:22:49.602Z,0.60
2022-11-01T16:27:54.779Z,0.95
2022-11-01T16:30:46.231Z,0.95
2022-11-01T16:33:38.646Z,1.10
2022-11-01T16:36:18.338Z,1.33
2022-11-01T16:38:47.031Z,1.40
2022-11-01T16:41:24.374Z,1.08
2022-11-01T16:43:58.534Z,0.88
2022-11-01T16:46:29.386Z,1.20
2022-11-01T16:49:20.379Z,1.70
2022-11-01T16:51:47.982Z,1.77
2022-11-01T16:54:16.015Z,1.80
2022-11-01T16:56:49.907Z,2.47
2022-11-01T16:59:26.647Z,2.45
2022-11-01T17:01:58.276Z,2.38
2022-11-01T17:04:29.741Z,1.42
2022-11-01T17:06:58.682Z,2.40
2022-11-01T17:09:30.957Z,3.17
2022-11-01T17:11:58.463Z,1.98
2022-11-01T17:14:26.548Z,2.35
2022-11-01T17:16:56.387Z,1.60
2022-11-01T17:19:35.174Z,2.75
2022-11-01T17:22:12.853Z,3.83
2022-11-01T17:24:44.514Z,3.83
2022-11-01T17:27:12.723Z,3.30
2022-11-01T17:29:42.182Z,2.55
2022-11-01T17:32:11.533Z,3.20
2022-11-01T17:34:39.451Z,2.70
2022-11-01T17:39:34.702Z,3.30
2022-11-01T17:42:04.364Z,2.95
2022-11-01T17:44:31.931Z,3.55
2022-11-01T17:46:59.712Z,3.20
2022-11-01T17:49:27.084Z,4.03
2022-11-01T17:51:56.035Z,2.70
2022-11-01T17:56:51.711Z,5.35
2022-11-01T17:59:19.603Z,2.83
2022-11-01T18:04:15.080Z,2.45
2022-11-01T18:06:44.277Z,3.10
2022-11-01T18:09:24.235Z,4.72
2022-11-01T18:11:58.974Z,3.33
2022-11-01T18:15:02.083Z,6.22
2022-11-01T18:17:53.515Z,4.07
2022-11-01T18:21:07.319Z,2.08
2022-11-01T18:23:36.296Z,4.00
2022-11-01T18:26:03.785Z,2.63
2022-11-01T18:28:32.440Z,4.03
2022-11-01T18:31:06.608Z,4.43
2022-11-01T18:33:50.961Z,4.43
2022-11-01T18:36:25.264Z,2.85
2022-11-01T18:38:57.073Z,2.65
2022-11-01T18:41:24.611Z,2.13
2022-11-01T18:43:54.169Z,2.90
2022-11-01T18:46:26.461Z,2.78
2022-11-01T18:49:03.677Z,2.20
2022-11-01T18:51:33.558Z,2.63
2022-11-01T18:54:10.146Z,3.10
2022-11-01T18:56:39.674Z,2.60
2022-11-01T18:59:22.682Z,2.33
2022-11-01T19:02:21.501Z,3.63
2022-11-01T19:05:00.108Z,3.65
2022-11-01T19:07:44.582Z,2.35
2022-11-01T19:10:20.100Z,3.08
2022-11-01T19:12:54.833Z,1.52
2022-11-01T19:15:28.590Z,2.15
2022-11-01T19:18:04.371Z,4.50
2022-11-01T19:20:40.551Z,1.70
2022-11-01T19:23:23.562Z,1.77
2022-11-01T19:25:51.841Z,1.60
2022-11-01T19:28:35.484Z,2.92
2022-11-01T19:31:26.121Z,1.92
2022-11-01T19:33:56.634Z,1.60
2022-11-01T19:36:33.118Z,0.90
2022-11-01T19:39:00.808Z,1.08
2022-11-01T19:41:39.742Z,1.42
2022-11-01T19:44:14.680Z,1.55
2022-11-01T19:46:42.109Z,1.92
2022-11-01T19:49:25.304Z,1.00
2022-11-01T19:52:00.527Z,3.30
2022-11-01T19:54:35.465Z,1.58
2022-11-01T19:57:33.910Z,1.20
2022-11-01T20:00:25.090Z,0.98
2022-11-01T20:02:55.077Z,1.20
2022-11-01T20:05:23.809Z,2.03
2022-11-01T20:08:02.656Z,2.03
2022-11-01T20:10:30.268Z,1.25
2022-11-01T20:12:57.774Z,0.95
2022-11-01T20:15:25.125Z,1.48
2022-11-01T20:17:52.812Z,1.17
2022-11-01T20:20:20.614Z,1.38
2022-11-01T20:22:54.910Z,0.73
2022-11-01T20:25:33.968Z,1.75
2022-11-01T20:28:01.722Z,0.47
2022-11-01T20:32:56.847Z,2.00
2022-11-01T20:35:24.181Z,0.63
2022-11-01T20:37:51.598Z,0.43
2022-11-01T20:40:19.284Z,0.40
2022-11-01T20:42:46.689Z,1.17
2022-11-01T20:45:14.117Z,0.85
2022-11-01T20:47:46.240Z,1.60
2022-11-01T20:50:16.410Z,1.30
2022-11-01T20:52:46.362Z,0.80
2022-11-01T20:55:13.780Z,1.92
2022-11-01T20:57:41.193Z,0.93
2022-11-01T21:00:29.369Z,0.73
2022-11-01T21:02:57.880Z,0.50
2022-11-01T21:05:29.271Z,0.50
2022-11-01T21:08:25.017Z,0.68
2022-11-01T21:11:02.755Z,0.20
2022-11-01T21:16:02.875Z,0.95
2022-11-01T21:18:36.465Z,0.20
2022-11-01T21:21:30.537Z,0.60
2022-11-01T21:23:59.173Z,1.42
2022-11-01T21:26:34.087Z,0.25
2022-11-01T21:29:14.658Z,0.63
2022-11-01T21:31:42.852Z,0.65
2022-11-01T21:34:10.293Z,0.25
2022-11-01T21:36:41.519Z,0.60
2022-11-01T21:39:40.541Z,0.35
2022-11-01T21:42:33.807Z,0.32
2022-11-01T21:48:59.567Z,0.65
2022-11-01T21:51:30.663Z,0.60
2022-11-01T21:54:03.499Z,0.30
2022-11-01T21:56:32.265Z,0.60
2022-11-01T21:59:11.404Z,0.43
2022-11-01T22:01:43.590Z,0.30
2022-11-01T22:04:11.765Z,0.40
2022-11-01T22:06:50.541Z,0.60
2022-11-01T22:09:18.357Z,0.70
2022-11-01T22:11:46.565Z,0.30
2022-11-01T22:14:14.160Z,0.38
2022-11-01T22:16:41.564Z,0.40
2022-11-01T22:19:12.195Z,0.32
2022-11-01T22:21:39.746Z,0.88
2022-11-01T22:24:07.804Z,0.10
2022-11-01T22:29:06.025Z,0.52
2022-11-01T22:31:33.409Z,1.45
2022-11-01T22:34:01.994Z,0.77
2022-11-01T22:36:31.214Z,0.25
2022-11-01T22:39:00.931Z,0.45
2022-11-01T22:41:44.606Z,0.40
2022-11-01T22:44:14.802Z,0.50
2022-11-01T22:46:59.621Z,0.40
2022-11-01T22:50:03.066Z,0.20
2022-11-01T22:52:32.292Z,0.32
2022-11-01T22:55:25.782Z,0.63
2022-11-01T22:58:35.145Z,0.52
2022-11-01T23:01:16.881Z,0.20
2022-11-01T23:03:51.840Z,0.55
2022-11-01T23:06:31.166Z,0.25
2022-11-01T23:09:12.914Z,1.08
2022-11-01T23:11:58.952Z,0.80
2022-11-01T23:14:37.773Z,1.45
2022-11-01T23:17:26.751Z,1.17
2022-11-01T23:20:00.396Z,0.30
2022-11-01T23:22:36.183Z,0.40
2022-11-01T23:25:05.554Z,0.73
2022-11-01T23:27:33.022Z,0.55
2022-11-01T23:30:08.047Z,0.52
2022-11-01T23:32:35.463Z,0.50
2022-11-01T23:35:17.771Z,0.77
2022-11-01T23:37:45.875Z,0.80
2022-11-01T23:40:21.020Z,1.45
2022-11-01T23:42:49.431Z,1.20
2022-11-01T23:45:34.067Z,0.70
2022-11-01T23:48:02.184Z,0.50
2022-11-01T23:50:35.112Z,0.73
2022-11-01T23:53:06.324Z,1.33
2022-11-01T23:55:38.125Z,1.20
2022-11-01T23:58:18.024Z,1.20
